Time;durP1;ratioP1;P1;durP2;ratioP2;P2;SDS_P1;SDS_P2;PMS_P1;PMS_P2;Temp;Humidity;BMP_temperature;BMP_pressure;BME280_temperature;BME280_humidity;BME280_pressure;Samples;Min_cycle;Max_cycle;Signal;HPM_P1;HPM_P2
2024/03/25 00:01:09;;;;;;;15.60;6.00;;;5.20;99.90;;;4.36;100.00;100507.84;4104337;29;20027;-75
2024/03/25 00:03:10;;;;;;;12.60;5.78;;;5.10;99.90;;;4.35;100.00;100503.56;4103069;29;20482;-75
2024/03/25 00:05:11;;;;;;;7.85;5.18;;;5.10;99.90;;;4.36;100.00;100500.00;4104097;28;20431;-76
2024/03/25 00:07:12;;;;;;;9.52;5.00;;;5.10;99.90;;;4.28;100.00;100481.50;4102927;29;20027;-75
2024/03/25 00:09:14;;;;;;;7.28;4.70;;;5.10;99.90;;;4.21;100.00;100478.53;4104116;28;20512;-76
2024/03/25 00:11:14;;;;;;;10.50;5.05;;;5.00;99.90;;;4.18;100.00;100484.00;4102829;29;20031;-76
2024/03/25 00:13:15;;;;;;;11.75;4.93;;;5.00;99.90;;;4.09;100.00;100476.88;4104164;29;20029;-75
2024/03/25 00:15:16;;;;;;;7.65;4.93;;;4.90;99.90;;;4.03;100.00;100469.56;4103947;29;20034;-76
2024/03/25 00:17:17;;;;;;;11.52;5.30;;;4.90;99.90;;;4.00;100.00;100469.81;4102851;29;20024;-76
2024/03/25 00:19:18;;;;;;;8.80;4.60;;;4.80;99.90;;;3.95;100.00;100471.94;4103662;28;20035;-76
2024/03/25 00:21:19;;;;;;;12.45;5.72;;;4.80;99.90;;;3.90;100.00;100474.91;4104229;28;20024;-76
2024/03/25 00:23:20;;;;;;;9.63;5.13;;;4.70;99.90;;;3.91;100.00;100465.31;4104033;29;20061;-76
2024/03/25 00:25:21;;;;;;;8.77;4.70;;;4.70;99.90;;;3.88;100.00;100460.34;4102748;29;20035;-75
2024/03/25 00:27:22;;;;;;;12.55;5.60;;;4.70;99.90;;;3.90;100.00;100453.22;4093470;29;20034;-75
2024/03/25 00:29:23;;;;;;;13.85;5.88;;;4.70;99.90;;;3.87;100.00;100445.63;4086911;29;20080;-76
2024/03/25 00:31:24;;;;;;;12.00;6.60;;;4.70;99.90;;;3.85;100.00;100450.13;4094926;29;20058;-75
2024/03/25 00:33:25;;;;;;;11.45;5.18;;;4.70;99.90;;;3.87;100.00;100456.91;4086542;29;20058;-76
2024/03/25 00:35:27;;;;;;;7.25;4.75;;;4.60;99.90;;;3.83;100.00;100446.81;4103371;29;20039;-76
2024/03/25 00:37:28;;;;;;;13.55;5.28;;;4.60;99.90;;;3.81;100.00;100448.72;4118259;28;20080;-75
2024/03/25 00:39:32;;;;;;;8.95;4.57;;;4.60;99.90;;;3.82;100.00;100440.75;4104021;29;20116;-75
2024/03/25 00:41:32;;;;;;;12.50;5.13;;;4.60;99.90;;;3.84;100.00;100438.03;4103871;28;20082;-75
2024/03/25 00:43:33;;;;;;;8.80;5.28;;;4.60;99.90;;;3.84;100.00;100432.81;4103756;29;20027;-75
2024/03/25 00:45:34;;;;;;;10.40;5.45;;;4.60;99.90;;;3.88;100.00;100429.03;4104040;29;20042;-75
2024/03/25 00:47:35;;;;;;;8.57;4.97;;;4.70;99.90;;;3.92;100.00;100430.41;4103801;29;20026;-75
2024/03/25 00:49:36;;;;;;;9.75;4.80;;;4.70;99.90;;;3.93;100.00;100424.25;4103629;29;20071;-76
2024/03/25 00:51:37;;;;;;;15.85;5.40;;;4.70;99.90;;;3.92;100.00;100412.16;4103726;29;20163;-76
2024/03/25 00:53:38;;;;;;;14.02;5.20;;;4.70;99.90;;;3.89;100.00;100405.41;4102644;29;20031;-76
2024/03/25 00:55:39;;;;;;;16.35;5.70;;;4.70;99.90;;;3.94;100.00;100412.88;4103883;28;20027;-75
2024/03/25 00:57:40;;;;;;;8.88;4.90;;;4.80;99.90;;;3.97;100.00;100415.25;4102376;29;20026;-75
2024/03/25 00:59:41;;;;;;;12.27;5.72;;;4.70;99.90;;;3.97;100.00;100407.44;4118428;28;20023;-76
2024/03/25 01:01:41;;;;;;;9.32;5.22;;;4.80;99.90;;;4.00;100.00;100407.19;4103843;28;20029;-76
2024/03/25 01:03:42;;;;;;;9.90;5.45;;;4.80;99.90;;;4.04;100.00;100413.78;4103813;29;20035;-76
2024/03/25 01:05:43;;;;;;;13.23;5.20;;;4.80;99.90;;;4.07;100.00;100405.72;4102237;29;20034;-75
2024/03/25 01:07:44;;;;;;;9.73;4.60;;;4.80;99.90;;;4.12;100.00;100403.56;4103814;28;20026;-75
2024/03/25 01:09:45;;;;;;;14.75;6.05;;;4.90;99.90;;;4.18;100.00;100399.66;4106852;28;20038;-76
2024/03/25 01:11:45;;;;;;;8.73;4.70;;;4.90;99.90;;;4.25;100.00;100398.19;4106782;28;20100;-76
2024/03/25 01:13:46;;;;;;;15.93;6.70;;;5.00;99.90;;;4.30;100.00;100396.06;4106703;28;20027;-76
2024/03/25 01:15:47;;;;;;;15.13;5.85;;;5.10;99.90;;;4.32;100.00;100386.31;4106547;28;20043;-76
2024/03/25 01:17:48;;;;;;;9.35;5.30;;;5.10;99.90;;;4.35;100.00;100375.63;4106590;28;20035;-75
2024/03/25 01:19:49;;;;;;;10.85;5.35;;;5.10;99.90;;;4.36;100.00;100370.25;4106451;29;20027;-76
2024/03/25 01:21:50;;;;;;;11.98;5.07;;;5.10;99.90;;;4.35;100.00;100370.38;4106300;28;20041;-75
2024/03/25 01:23:50;;;;;;;13.80;5.25;;;5.10;99.90;;;4.33;100.00;100360.06;4106496;28;20521;-76
2024/03/25 01:25:52;;;;;;;12.80;5.70;;;5.10;99.90;;;4.32;100.00;100360.19;4105388;29;20431;-75
2024/03/25 01:27:52;;;;;;;9.70;5.30;;;5.10;99.90;;;4.27;100.00;100360.56;4106408;28;20086;-75
2024/03/25 01:29:53;;;;;;;11.45;5.82;;;5.10;99.90;;;4.24;100.00;100355.59;4106654;29;20471;-76
2024/03/25 01:31:54;;;;;;;8.52;4.55;;;5.10;99.90;;;4.27;100.00;100344.91;4106359;29;20032;-75
2024/03/25 01:33:55;;;;;;;8.35;5.13;;;5.10;99.90;;;4.25;100.00;100333.75;4120961;28;20105;-75
2024/03/25 01:35:56;;;;;;;9.38;5.18;;;5.10;99.90;;;4.29;100.00;100332.56;4104924;29;20034;-76
2024/03/25 01:37:57;;;;;;;7.72;4.70;;;5.10;99.90;;;4.30;100.00;100331.59;4106117;29;20031;-75
2024/03/25 01:39:58;;;;;;;11.52;5.45;;;5.10;99.90;;;4.31;100.00;100328.03;4106301;29;20110;-76
2024/03/25 01:41:59;;;;;;;9.93;4.68;;;5.10;99.90;;;4.30;100.00;100331.59;4106206;29;20030;-75
2024/03/25 01:44:00;;;;;;;10.23;5.40;;;5.10;99.90;;;4.33;100.00;100322.69;4106258;29;20037;-75
2024/03/25 01:46:01;;;;;;;10.70;5.22;;;5.10;99.90;;;4.34;100.00;100316.50;4106215;29;20031;-75
2024/03/25 01:48:06;;;;;;;12.27;6.22;;;5.10;99.90;;;4.34;100.00;100312.13;4106123;29;20027;-76
2024/03/25 01:50:07;;;;;;;13.95;5.78;;;5.10;99.90;;;4.38;100.00;100313.53;4120567;28;20038;-76
2024/03/25 01:52:08;;;;;;;14.18;5.60;;;5.10;99.90;;;4.39;100.00;100309.13;4105004;29;20045;-76
2024/03/25 01:54:09;;;;;;;10.80;5.38;;;5.20;99.90;;;4.42;100.00;100304.47;4106095;28;20035;-75
2024/03/25 01:56:13;;;;;;;13.40;6.63;;;5.20;99.90;;;4.43;100.00;100298.28;4104858;29;20470;-75
2024/03/25 01:58:15;;;;;;;10.13;4.97;;;5.20;99.90;;;4.46;100.00;100295.44;4104674;29;20035;-76
2024/03/25 02:00:17;;;;;;;9.25;6.18;;;5.30;99.90;;;4.51;100.00;100292.41;4104892;29;20027;-75
2024/03/25 02:02:18;;;;;;;10.48;4.80;;;5.30;99.90;;;4.57;100.00;100284.06;4106027;28;20023;-76
2024/03/25 02:04:19;;;;;;;11.82;5.53;;;5.30;99.90;;;4.60;100.00;100273.38;4104645;29;20027;-75
2024/03/25 02:06:21;;;;;;;10.38;4.47;;;5.30;99.90;;;4.61;100.00;100269.81;4104651;29;20039;-76
2024/03/25 02:08:23;;;;;;;10.30;5.00;;;5.40;99.90;;;4.65;100.00;100265.16;4104606;29;20030;-76
2024/03/25 02:10:25;;;;;;;9.73;5.22;;;5.40;99.90;;;4.66;100.00;100253.75;4095982;29;20032;-75
2024/03/25 02:12:26;;;;;;;10.73;4.55;;;5.40;99.90;;;4.62;100.00;100258.41;4100945;29;20108;-76
2024/03/25 02:14:27;;;;;;;11.52;4.78;;;5.40;99.90;;;4.60;100.00;100259.50;4104321;29;20032;-76
2024/03/25 02:16:28;;;;;;;11.55;5.32;;;5.40;99.90;;;4.54;100.00;100258.22;4105719;29;20023;-76
2024/03/25 02:18:30;;;;;;;8.65;4.75;;;5.40;99.90;;;4.54;100.00;100252.19;4104151;28;20054;-76
2024/03/25 02:20:31;;;;;;;7.25;4.47;;;5.30;99.90;;;4.52;100.00;100249.69;4104447;29;20031;-76
2024/03/25 02:22:34;;;;;;;8.65;4.45;;;5.30;99.90;;;4.52;100.00;100236.63;4104426;28;20034;-76
2024/03/25 02:24:36;;;;;;;14.07;5.53;;;5.30;99.90;;;4.57;100.00;100233.66;4104510;29;20027;-75
2024/03/25 02:26:36;;;;;;;9.10;4.75;;;5.30;99.90;;;4.63;100.00;100230.50;4105282;28;20035;-75
2024/03/25 02:28:37;;;;;;;10.30;4.70;;;5.30;99.90;;;4.63;100.00;100223.47;4105425;28;20055;-75
2024/03/25 02:30:40;;;;;;;13.63;6.05;;;5.40;99.90;;;4.67;100.00;100224.03;4104239;29;20442;-75
2024/03/25 02:32:41;;;;;;;7.00;4.40;;;5.40;99.90;;;4.74;100.00;100225.19;4105417;28;20055;-76
2024/03/25 02:34:49;;;;;;;6.72;4.40;;;5.50;99.90;;;4.75;100.00;100217.19;4105220;29;20039;-75
2024/03/25 02:36:50;;;;;;;9.38;4.55;;;5.50;99.90;;;4.83;100.00;100219.19;4104247;29;20058;-75
2024/03/25 02:38:51;;;;;;;8.25;4.90;;;5.50;99.90;;;4.87;100.00;100215.31;4104866;28;20050;-75
2024/03/25 02:40:52;;;;;;;7.75;4.38;;;5.60;99.90;;;4.90;100.00;100220.28;4104370;29;20027;-76
2024/03/25 02:42:53;;;;;;;8.73;5.03;;;5.60;99.90;;;4.90;100.00;100215.06;4105429;28;20474;-75
2024/03/25 02:44:56;;;;;;;10.60;5.25;;;5.60;99.90;;;4.91;100.00;100211.50;4104118;29;20027;-76
2024/03/25 02:46:58;;;;;;;10.57;4.97;;;5.60;99.90;;;4.96;100.00;100220.59;4104152;29;20106;-75
2024/03/25 02:48:58;;;;;;;8.05;3.92;;;5.70;99.90;;;5.02;100.00;100220.06;4105298;28;20038;-76
2024/03/25 02:50:59;;;;;;;7.22;3.90;;;5.70;99.90;;;5.08;100.00;100213.47;4105055;29;20415;-75
2024/03/25 02:53:00;;;;;;;12.75;4.45;;;5.80;99.90;;;5.12;100.00;100204.41;4105198;29;20031;-76
2024/03/25 02:55:01;;;;;;;6.22;4.00;;;5.80;99.90;;;5.19;100.00;100194.22;4103917;29;20035;-76
2024/03/25 02:57:02;;;;;;;7.05;4.25;;;5.90;99.90;;;5.20;100.00;100183.63;4105149;28;20027;-76
2024/03/25 02:59:03;;;;;;;6.63;4.22;;;5.90;99.90;;;5.24;100.00;100187.63;4105154;28;20114;-75
2024/03/25 03:01:04;;;;;;;7.18;4.18;;;6.00;99.90;;;5.26;100.00;100188.31;4105014;29;20427;-76
2024/03/25 03:03:05;;;;;;;8.98;4.30;;;6.00;99.90;;;5.27;100.00;100184.75;4103964;29;20551;-76
2024/03/25 03:05:06;;;;;;;6.82;3.38;;;6.00;99.90;;;5.27;100.00;100176.91;4103212;29;20047;-76
2024/03/25 03:07:07;;;;;;;12.48;4.32;;;6.00;99.90;;;5.33;100.00;100165.91;4097341;29;20027;-75
2024/03/25 03:09:07;;;;;;;5.13;3.72;;;6.00;99.90;;;5.38;100.00;100160.25;4105127;28;20027;-76
2024/03/25 03:11:08;;;;;;;9.98;4.03;;;6.10;99.90;;;5.35;100.00;100132.59;4119569;28;20027;-76
2024/03/25 03:13:10;;;;;;;7.20;3.83;;;6.10;99.90;;;5.41;100.00;100132.03;4103820;29;20042;-75
2024/03/25 03:15:11;;;;;;;7.03;4.35;;;6.20;99.90;;;5.42;100.00;100128.47;4104496;28;20053;-75
2024/03/25 03:17:12;;;;;;;6.28;3.72;;;6.10;99.90;;;5.41;100.00;100129.41;4104855;28;20023;-76
2024/03/25 03:19:13;;;;;;;9.00;4.00;;;6.10;99.90;;;5.42;100.00;100141.53;4104439;28;20023;-76
2024/03/25 03:21:14;;;;;;;37.22;5.03;;;6.20;99.90;;;5.39;100.00;100136.59;4104973;28;20506;-76
2024/03/25 03:23:15;;;;;;;9.93;4.13;;;6.20;99.90;;;5.45;100.00;100138.66;4104737;29;20032;-75
2024/03/25 03:25:16;;;;;;;11.57;4.78;;;6.20;99.90;;;5.50;100.00;100115.50;4104688;29;20024;-75
2024/03/25 03:27:17;;;;;;;10.00;3.65;;;6.20;99.90;;;5.52;100.00;100107.53;4115716;28;20023;-75
2024/03/25 03:29:18;;;;;;;16.83;4.90;;;6.30;99.90;;;5.56;100.00;100108.91;4103451;28;20034;-75
2024/03/25 03:31:21;;;;;;;4.55;3.30;;;6.30;99.90;;;5.57;100.00;100098.31;4104070;28;20042;-75
2024/03/25 03:33:21;;;;;;;8.27;3.47;;;6.30;99.90;;;5.58;100.00;100091.28;4103228;29;20122;-75
2024/03/25 03:35:22;;;;;;;11.90;3.72;;;6.30;99.90;;;5.59;100.00;100098.16;4102944;29;20034;-75
2024/03/25 03:37:23;;;;;;;9.02;3.30;;;6.30;99.90;;;5.58;100.00;100092.09;4104466;29;20035;-76
2024/03/25 03:39:24;;;;;;;7.22;3.47;;;6.30;99.90;;;5.60;100.00;100089.34;4103334;29;20058;-75
2024/03/25 03:41:25;;;;;;;13.43;4.00;;;6.30;99.90;;;5.59;100.00;100093.75;4103359;29;20034;-75
2024/03/25 03:43:26;;;;;;;4.72;3.05;;;6.30;99.90;;;5.59;100.00;100083.28;4104396;28;20031;-75
2024/03/25 03:45:32;;;;;;;9.65;3.72;;;6.30;99.90;;;5.57;100.00;100074.75;4104477;28;20059;-75
2024/03/25 03:47:33;;;;;;;4.93;3.60;;;6.30;99.90;;;5.65;100.00;100070.59;4103369;29;20028;-75
2024/03/25 03:49:34;;;;;;;5.60;3.30;;;6.30;99.90;;;5.64;100.00;100061.13;4104154;28;20035;-75
2024/03/25 03:51:34;;;;;;;8.07;3.88;;;6.40;99.90;;;5.58;100.00;100050.22;4104217;29;20045;-76
2024/03/25 03:53:35;;;;;;;12.38;4.18;;;6.40;99.90;;;5.63;100.00;100054.22;4104343;29;20027;-76
2024/03/25 03:55:37;;;;;;;8.48;3.78;;;6.30;99.90;;;5.61;100.00;100053.56;4102919;29;20043;-76
2024/03/25 03:57:37;;;;;;;6.93;3.75;;;6.30;99.90;;;5.64;100.00;100050.66;4104171;28;20094;-75
2024/03/25 03:59:38;;;;;;;4.63;3.40;;;6.40;99.90;;;5.61;100.00;100045.72;4118869;28;20023;-75
2024/03/25 04:01:39;;;;;;;8.55;3.92;;;6.40;99.90;;;5.65;100.00;100041.81;4104318;28;20031;-76
2024/03/25 04:03:40;;;;;;;9.48;3.45;;;6.40;99.90;;;5.65;100.00;100047.88;4104314;29;20031;-75
2024/03/25 04:05:41;;;;;;;10.68;3.60;;;6.40;99.90;;;5.65;100.00;100047.88;4104022;29;20019;-76
2024/03/25 04:07:42;;;;;;;6.00;3.42;;;6.40;99.90;;;5.66;100.00;100033.84;4104187;29;20027;-75
2024/03/25 04:09:43;;;;;;;8.43;3.25;;;6.40;99.90;;;5.68;100.00;100029.28;4090035;29;20039;-75
2024/03/25 04:11:44;;;;;;;7.50;3.72;;;6.40;99.90;;;5.66;100.00;100023.38;4097113;29;20023;-75
2024/03/25 04:13:47;;;;;;;9.40;4.18;;;6.40;99.90;;;5.62;100.00;100008.09;4097393;29;20023;-75
2024/03/25 04:15:48;;;;;;;5.00;3.35;;;6.40;99.90;;;5.60;100.00;100003.00;4102948;29;20539;-75
2024/03/25 04:17:49;;;;;;;4.25;3.15;;;6.40;99.90;;;5.58;100.00;99997.91;4103474;28;20031;-76
2024/03/25 04:19:51;;;;;;;4.00;3.05;;;6.40;99.90;;;5.57;100.00;99985.00;4102775;29;20046;-75
2024/03/25 04:21:53;;;;;;;7.93;4.07;;;6.30;99.90;;;5.55;100.00;99990.34;4102908;28;20064;-75
2024/03/25 04:23:54;;;;;;;8.65;4.40;;;6.30;99.90;;;5.49;100.00;99980.47;4118832;28;20019;-76
2024/03/25 04:25:55;;;;;;;7.40;4.03;;;6.30;99.90;;;5.50;100.00;99978.66;4102775;29;20059;-75
2024/03/25 04:27:56;;;;;;;5.05;3.70;;;6.20;99.90;;;5.48;100.00;99978.00;4103957;28;20031;-76
2024/03/25 04:29:57;;;;;;;12.68;4.25;;;6.20;99.90;;;5.47;100.00;99976.34;4102848;29;20067;-75
2024/03/25 04:31:57;;;;;;;6.68;3.83;;;6.20;99.90;;;5.47;100.00;99971.94;4103805;28;20106;-75
2024/03/25 04:33:58;;;;;;;7.55;4.20;;;6.20;99.90;;;5.48;100.00;99972.75;4103925;29;20106;-76
2024/03/25 04:35:59;;;;;;;7.45;3.90;;;6.20;99.90;;;5.45;100.00;99959.97;4103799;29;20090;-76
2024/03/25 04:38:00;;;;;;;7.10;4.13;;;6.20;99.90;;;5.45;100.00;99952.94;4103684;29;20035;-75
2024/03/25 04:40:02;;;;;;;6.85;3.13;;;6.20;99.90;;;5.45;100.00;99952.13;4103901;28;20110;-75
2024/03/25 04:42:03;;;;;;;10.98;4.28;;;6.20;99.90;;;5.43;100.00;99956.69;4103845;28;20027;-75
2024/03/25 04:44:04;;;;;;;5.50;3.53;;;6.20;99.90;;;5.44;100.00;99946.06;4107194;29;20031;-75
2024/03/25 04:46:05;;;;;;;4.93;3.20;;;6.20;99.90;;;5.42;100.00;99940.16;4107118;29;20106;-75
2024/03/25 04:48:07;;;;;;;9.18;3.45;;;6.20;99.90;;;5.44;100.00;99943.44;4107032;29;20031;-76
2024/03/25 04:50:09;;;;;;;5.57;3.22;;;6.20;99.90;;;5.46;100.00;99949.38;4121535;28;20077;-75
2024/03/25 04:52:16;;;;;;;7.20;2.92;;;6.20;99.90;;;5.49;100.00;99945.66;4105920;29;20102;-76
2024/03/25 04:54:17;;;;;;;6.10;2.97;;;6.20;99.90;;;5.52;100.00;99935.72;4105661;29;20031;-75
2024/03/25 04:56:18;;;;;;;8.05;3.42;;;6.30;99.90;;;5.57;100.00;99940.53;4106943;29;20035;-75
2024/03/25 04:58:20;;;;;;;5.63;3.00;;;6.30;99.90;;;5.56;100.00;99934.44;4106659;29;20078;-75
2024/03/25 05:00:21;;;;;;;6.95;3.75;;;6.30;99.90;;;5.54;100.00;99931.16;4105885;29;20102;-75
2024/03/25 05:02:22;;;;;;;6.63;4.00;;;6.30;99.90;;;5.60;100.00;99932.38;4106639;29;20443;-76
2024/03/25 05:04:23;;;;;;;8.07;3.38;;;6.30;99.90;;;5.59;100.00;99925.50;4106690;29;20066;-76
2024/03/25 05:06:24;;;;;;;6.40;3.28;;;6.30;99.90;;;5.52;100.00;99922.66;4121419;28;20085;-76
2024/03/25 05:08:24;;;;;;;7.05;3.53;;;6.30;99.90;;;5.54;100.00;99918.09;4100618;29;20028;-76
2024/03/25 05:10:25;;;;;;;6.72;2.67;;;6.30;99.90;;;5.55;100.00;99914.47;4105630;29;20027;-75
2024/03/25 05:12:29;;;;;;;9.75;3.78;;;6.30;99.90;;;5.53;100.00;99924.28;4106711;28;20023;-75
2024/03/25 05:14:30;;;;;;;11.98;5.22;;;6.30;99.90;;;5.49;100.00;99914.25;4105304;29;20028;-75
2024/03/25 05:16:31;;;;;;;8.45;4.10;;;6.30;99.90;;;5.50;100.00;99921.94;4106641;29;20038;-76
2024/03/25 05:18:32;;;;;;;8.85;4.65;;;6.30;99.90;;;5.49;100.00;99920.31;4105205;29;20032;-76
2024/03/25 05:20:33;;;;;;;5.93;3.58;;;6.30;99.90;;;5.49;100.00;99920.31;4106387;29;20034;-75
2024/03/25 05:22:33;;;;;;;7.15;3.03;;;6.30;99.90;;;5.44;100.00;99912.06;4106409;28;20035;-76
2024/03/25 05:24:34;;;;;;;8.52;3.42;;;6.20;99.90;;;5.41;100.00;99922.81;4105142;29;20020;-75
2024/03/25 05:26:35;;;;;;;6.32;3.08;;;6.20;99.90;;;5.37;100.00;99924.09;4121326;28;20026;-75
2024/03/25 05:28:36;;;;;;;8.50;4.13;;;6.20;99.90;;;5.34;100.00;99916.53;4093686;29;20043;-75
2024/03/25 05:30:37;;;;;;;11.45;3.97;;;6.10;99.90;;;5.31;100.00;99923.81;4103917;29;20027;-75
2024/03/25 05:32:38;;;;;;;11.93;3.85;;;6.10;99.90;;;5.27;100.00;99932.91;4106302;28;20047;-76
2024/03/25 05:34:39;;;;;;;7.72;3.47;;;6.00;99.90;;;5.16;100.00;99926.06;4106348;28;20039;-76
2024/03/25 05:36:39;;;;;;;6.25;3.22;;;6.00;99.90;;;5.16;100.00;99928.69;4106334;28;20032;-75
2024/03/25 05:38:42;;;;;;;8.85;4.70;;;5.90;99.90;;;5.08;100.00;99915.47;4105987;28;20491;-78
2024/03/25 05:40:45;;;;;;;12.70;4.32;;;5.80;99.90;;;5.04;100.00;99911.50;4105170;29;20019;-75
2024/03/25 05:42:45;;;;;;;9.18;3.55;;;5.80;99.90;;;5.01;100.00;99910.00;4097442;29;20039;-76
2024/03/25 05:44:46;;;;;;;10.80;4.75;;;5.80;99.90;;;5.04;100.00;99911.50;4101173;29;20051;-75
2024/03/25 05:46:47;;;;;;;7.15;3.22;;;5.80;99.90;;;4.94;100.00;99908.91;4106095;28;20035;-75
2024/03/25 05:48:48;;;;;;;11.18;4.38;;;5.70;99.90;;;4.92;100.00;99915.25;4106088;28;20495;-76
2024/03/25 05:51:02;;;;;;;9.77;3.70;;;5.70;99.90;;;4.85;100.00;99911.53;4105959;29;20035;-75
2024/03/25 05:53:03;;;;;;;7.97;3.33;;;5.60;99.90;;;4.80;100.00;99905.91;4105846;28;20035;-75
2024/03/25 05:55:04;;;;;;;12.35;4.00;;;5.60;99.90;;;4.79;100.00;99907.69;4104554;29;20038;-75
2024/03/25 05:57:05;;;;;;;15.13;4.45;;;5.60;99.90;;;4.83;100.00;99910.84;4106151;28;20063;-75
2024/03/25 05:59:06;;;;;;;10.57;3.75;;;5.60;99.90;;;4.85;100.00;99909.75;4105859;29;20062;-75
2024/03/25 06:01:07;;;;;;;9.00;4.10;;;5.60;99.90;;;4.83;100.00;99900.41;4106041;29;20023;-75
2024/03/25 06:03:08;;;;;;;9.38;4.25;;;5.60;99.90;;;4.85;100.00;99898.47;4104701;29;20031;-76
2024/03/25 06:05:09;;;;;;;8.68;4.00;;;5.60;99.90;;;4.81;100.00;99882.25;4104792;29;20035;-75
2024/03/25 06:07:09;;;;;;;8.35;3.63;;;5.50;99.90;;;4.79;100.00;99871.13;4106001;29;20045;-75
2024/03/25 06:09:10;;;;;;;10.07;3.88;;;5.50;99.90;;;4.77;100.00;99861.78;4120773;28;20109;-75
2024/03/25 06:11:11;;;;;;;13.13;4.03;;;5.50;99.90;;;4.73;100.00;99858.63;4104580;29;20478;-75
2024/03/25 06:13:12;;;;;;;7.15;3.40;;;5.50;99.90;;;4.76;100.00;99863.56;4105708;28;20102;-75
2024/03/25 06:15:13;;;;;;;8.60;3.13;;;5.50;99.90;;;4.72;100.00;99854.34;4105798;29;20035;-76
2024/03/25 06:17:14;;;;;;;9.48;4.80;;;5.50;99.90;;;4.71;100.00;99852.72;4105511;29;20501;-75
2024/03/25 06:19:14;;;;;;;13.95;3.97;;;5.50;99.90;;;4.72;100.00;99845.72;4119965;28;20067;-76
2024/03/25 06:21:15;;;;;;;11.57;4.88;;;5.50;99.90;;;4.73;100.00;99837.72;4104632;28;20031;-75
2024/03/25 06:23:27;;;;;;;12.93;4.88;;;5.50;99.90;;;4.73;100.00;99842.09;4104610;29;20447;-75
2024/03/25 06:25:29;;;;;;;15.27;5.05;;;5.50;99.90;;;4.71;100.00;99831.00;4104578;29;20027;-76
2024/03/25 06:27:31;;;;;;;13.40;4.78;;;5.50;99.90;;;4.77;100.00;99848.72;4105638;28;20125;-75
2024/03/25 06:29:33;;;;;;;13.88;5.78;;;5.50;99.90;;;4.78;100.00;99829.47;4105672;28;20499;-75
2024/03/25 06:36:13;;;;;;;11.35;4.53;;;5.60;99.90;;;4.89;100.00;99805.78;4105491;29;20460;-75
2024/03/25 06:38:14;;;;;;;6.90;3.47;;;5.60;99.90;;;4.91;100.00;99793.38;4105235;29;20039;-75
2024/03/25 06:40:15;;;;;;;8.10;4.47;;;5.60;99.90;;;4.94;100.00;99790.47;4120162;28;20022;-75
2024/03/25 06:42:16;;;;;;;11.15;4.15;;;5.60;99.90;;;4.94;100.00;99783.47;4105483;28;20033;-75
2024/03/25 06:44:17;;;;;;;11.57;4.38;;;5.60;99.90;;;5.03;100.00;99776.56;4105374;29;20107;-75
2024/03/25 06:46:17;;;;;;;11.93;5.53;;;5.70;99.90;;;5.09;100.00;99772.53;4105370;29;20027;-75
2024/03/25 06:48:18;;;;;;;21.38;5.35;;;5.70;99.90;;;5.17;100.00;99773.44;4103957;29;20036;-76
2024/03/25 06:50:19;;;;;;;13.98;6.38;;;5.80;99.90;;;5.23;100.00;99767.66;4105105;29;20038;-76
2024/03/25 06:52:20;;;;;;;14.02;5.75;;;5.80;99.90;;;5.31;100.00;99770.38;4104310;29;20038;-75
2024/03/25 06:54:21;;;;;;;13.13;5.65;;;5.90;99.90;;;5.40;100.00;99768.66;4105383;28;20144;-75
2024/03/25 06:56:22;;;;;;;9.60;5.38;;;6.00;99.90;;;5.45;100.00;99771.66;4105052;29;20085;-75
2024/03/25 06:58:27;;;;;;;11.07;4.80;;;6.00;99.90;;;5.55;100.00;99765.38;4105010;29;20034;-76
2024/03/25 07:00:30;;;;;;;11.45;5.55;;;6.10;99.90;;;5.59;100.00;99764.13;4103741;29;20024;-75
2024/03/25 07:02:31;;;;;;;15.75;5.70;;;6.20;99.90;;;5.68;100.00;99764.19;4105076;28;20039;-75
2024/03/25 07:04:32;;;;;;;14.13;5.38;;;6.30;99.90;;;5.72;100.00;99763.78;4103531;28;20091;-76
2024/03/25 07:06:33;;;;;;;12.10;5.60;;;6.30;99.90;;;5.81;100.00;99762.06;4104378;28;20087;-75
2024/03/25 07:08:34;;;;;;;14.27;5.10;;;6.40;99.90;;;5.86;100.00;99754.59;4105018;29;20075;-76
2024/03/25 07:10:34;;;;;;;9.25;5.00;;;6.40;99.90;;;5.98;100.00;99763.88;4103809;29;20471;-76
2024/03/25 07:12:35;;;;;;;15.30;6.20;;;6.50;99.90;;;6.01;100.00;99753.91;4104977;28;20035;-76
2024/03/25 07:14:36;;;;;;;13.35;5.20;;;6.60;99.90;;;6.10;100.00;99760.03;4103028;29;20038;-76
2024/03/25 07:16:37;;;;;;;14.98;4.80;;;6.60;99.90;;;6.16;100.00;99756.00;4104767;29;20042;-76
2024/03/25 07:18:38;;;;;;;18.98;6.57;;;6.70;99.90;;;6.22;100.00;99758.84;4104808;28;20046;-75
2024/03/25 07:20:44;;;;;;;12.00;4.82;;;6.80;99.90;;;6.24;100.00;99759.53;4104649;29;20024;-75
2024/03/25 07:22:44;;;;;;;10.95;4.70;;;6.80;99.90;;;6.28;100.00;99763.47;4091426;29;20038;-75
2024/03/25 07:24:45;;;;;;;12.73;5.25;;;6.80;99.90;;;6.26;100.00;99760.19;4104823;28;20023;-76
2024/03/25 07:26:46;;;;;;;10.18;5.30;;;6.90;99.90;;;6.34;100.00;99765.47;4103530;29;20487;-75
2024/03/25 07:28:47;;;;;;;15.38;4.97;;;6.90;99.90;;;6.40;100.00;99769.28;4103270;28;20122;-75
2024/03/25 07:30:50;;;;;;;11.95;5.25;;;6.90;99.90;;;6.53;100.00;99759.22;4104380;28;20043;-76
2024/03/25 07:32:51;;;;;;;12.43;4.63;;;7.00;99.90;;;6.73;100.00;99759.81;4103483;29;20419;-75
2024/03/25 07:34:52;;;;;;;15.48;5.97;;;7.20;99.90;;;7.00;100.00;99767.50;4104371;29;20035;-76
2024/03/25 07:36:59;;;;;;;13.43;5.40;;;7.40;99.90;;;7.25;100.00;99761.38;4250105;27;20390;-76
2024/03/25 07:39:00;;;;;;;11.45;4.45;;;7.60;99.90;;;7.33;100.00;99765.84;4214806;28;20032;-76
2024/03/25 07:41:05;;;;;;;9.40;4.78;;;7.80;99.90;;;7.43;100.00;99763.91;4233195;28;20035;-76
2024/03/25 07:43:05;;;;;;;;;;;7.90;99.90;;;7.50;100.00;99752.59;4231718;28;20115;-75
2024/03/25 07:45:07;;;;;;;12.45;4.28;;;8.00;99.90;;;7.54;100.00;99746.06;4230974;28;20012;-76
2024/03/25 07:47:08;;;;;;;8.57;3.92;;;8.10;99.90;;;7.49;100.00;99732.59;4232045;28;20042;-76
2024/03/25 07:49:09;;;;;;;10.00;4.05;;;8.10;99.90;;;7.50;100.00;99733.41;4214687;28;20423;-76
2024/03/25 07:51:10;;;;;;;9.80;3.58;;;8.10;99.90;;;7.61;100.00;99727.88;4233033;28;20077;-75
2024/03/25 07:53:10;;;;;;;9.70;4.10;;;8.20;99.90;;;7.58;100.00;99710.66;4232949;28;20483;-77
2024/03/25 07:55:12;;;;;;;7.63;3.47;;;8.20;99.90;;;7.55;100.00;99720.63;4233039;28;20034;-76
2024/03/25 07:57:13;;;;;;;10.45;3.45;;;8.20;99.90;;;7.55;100.00;99707.53;4232959;28;20020;-76
2024/03/25 07:59:14;;;;;;;7.47;3.53;;;8.10;99.90;;;7.59;100.00;99709.66;4232792;28;20081;-76
2024/03/25 08:01:15;;;;;;;9.40;3.75;;;8.20;99.90;;;7.77;100.00;99712.94;4231584;28;20069;-76
2024/03/25 08:03:15;;;;;;;12.27;3.97;;;8.30;99.90;;;7.90;100.00;99698.50;4214636;28;20032;-77
2024/03/25 08:05:16;;;;;;;10.32;3.40;;;8.40;99.90;;;8.03;100.00;99690.97;4232580;28;20039;-77
2024/03/25 08:07:17;;;;;;;9.13;3.17;;;8.50;99.90;;;8.21;100.00;99695.03;4214629;28;20036;-76
2024/03/25 08:09:18;;;;;;;6.45;2.90;;;8.60;99.90;;;8.35;100.00;99690.97;4230757;28;20031;-77
2024/03/25 08:11:19;;;;;;;7.25;3.60;;;8.80;99.90;;;8.44;100.00;99679.44;4231501;28;20094;-76
2024/03/25 08:13:20;;;;;;;7.97;3.53;;;8.90;99.90;;;8.51;100.00;99672.50;4214490;28;20029;-76
2024/03/25 08:15:20;;;;;;;9.10;4.07;;;9.00;99.90;;;8.61;100.00;99670.50;4232484;28;20027;-76
2024/03/25 08:17:21;;;;;;;10.90;3.30;;;9.20;99.90;;;8.55;100.00;99671.19;4232571;28;20028;-76
2024/03/25 08:19:22;;;;;;;7.78;2.70;;;9.20;99.90;;;8.35;100.00;99662.06;4231115;28;20031;-76
2024/03/25 08:21:23;;;;;;;6.20;2.67;;;9.10;99.90;;;8.21;100.00;99658.25;4232449;28;20016;-76
2024/03/25 08:23:24;;;;;;;8.32;3.17;;;9.00;99.90;;;8.10;100.00;99665.66;4214491;28;20032;-76
2024/03/25 08:25:25;;;;;;;7.80;3.38;;;8.90;99.90;;;7.98;100.00;99649.44;4214448;28;20020;-76
2024/03/25 08:27:26;;;;;;;9.32;3.00;;;8.80;99.90;;;7.95;100.00;99649.75;4232485;28;20043;-76
2024/03/25 08:29:26;;;;;;;7.50;2.88;;;8.70;99.90;;;7.98;100.00;99653.88;4232452;28;20119;-76
2024/03/25 08:31:27;;;;;;;9.23;3.05;;;8.60;99.90;;;7.99;100.00;99643.22;4232435;28;20418;-76
2024/03/25 08:33:28;;;;;;;10.23;3.13;;;8.60;99.90;;;8.00;100.00;99638.78;4231162;28;20020;-76
2024/03/25 08:35:29;;;;;;;10.38;3.10;;;8.60;99.90;;;8.03;100.00;99639.28;4231337;28;20081;-76